sensor_id;sensor_type;location;lat;lon;timestamp;P1;durP1;ratioP1;P2;durP2;ratioP2
22040;SDS011;11184;52.444;13.578;2023-04-03T00:01:46;3.10;;;1.40;;
22040;SDS011;11184;52.444;13.578;2023-04-03T00:04:30;3.08;;;1.73;;
22040;SDS011;11184;52.444;13.578;2023-04-03T00:07:15;5.18;;;1.67;;
22040;SDS011;11184;52.444;13.578;2023-04-03T00:09:59;2.63;;;1.17;;
22040;SDS011;11184;52.444;13.578;2023-04-03T00:12:44;4.07;;;1.00;;
22040;SDS011;11184;52.444;13.578;2023-04-03T00:15:29;4.25;;;1.67;;
22040;SDS011;11184;52.444;13.578;2023-04-03T00:18:13;4.88;;;2.38;;
22040;SDS011;11184;52.444;13.578;2023-04-03T00:20:58;8.02;;;2.03;;
22040;SDS011;11184;52.444;13.578;2023-04-03T00:23:43;2.55;;;1.52;;
22040;SDS011;11184;52.444;13.578;2023-04-03T00:26:27;3.78;;;1.40;;
22040;SDS011;11184;52.444;13.578;2023-04-03T00:29:12;4.28;;;2.05;;
22040;SDS011;11184;52.444;13.578;2023-04-03T00:31:56;2.72;;;1.20;;
22040;SDS011;11184;52.444;13.578;2023-04-03T00:34:41;2.28;;;1.45;;
22040;SDS011;11184;52.444;13.578;2023-04-03T00:37:26;5.18;;;2.35;;
22040;SDS011;11184;52.444;13.578;2023-04-03T00:40:11;6.07;;;1.92;;
22040;SDS011;11184;52.444;13.578;2023-04-03T00:42:57;4.28;;;1.80;;
22040;SDS011;11184;52.444;13.578;2023-04-03T00:45:46;8.20;;;2.83;;
22040;SDS011;11184;52.444;13.578;2023-04-03T00:48:33;4.53;;;1.60;;
22040;SDS011;11184;52.444;13.578;2023-04-03T00:51:25;9.23;;;1.58;;
22040;SDS011;11184;52.444;13.578;2023-04-03T00:54:10;5.35;;;1.45;;
22040;SDS011;11184;52.444;13.578;2023-04-03T00:56:55;8.65;;;2.05;;
22040;SDS011;11184;52.444;13.578;2023-04-03T00:59:43;8.40;;;2.35;;
22040;SDS011;11184;52.444;13.578;2023-04-03T01:02:28;5.53;;;1.83;;
22040;SDS011;11184;52.444;13.578;2023-04-03T01:05:13;3.40;;;1.77;;
22040;SDS011;11184;52.444;13.578;2023-04-03T01:07:59;8.77;;;1.48;;
22040;SDS011;11184;52.444;13.578;2023-04-03T01:10:44;3.95;;;1.77;;
22040;SDS011;11184;52.444;13.578;2023-04-03T01:13:31;4.40;;;1.77;;
22040;SDS011;11184;52.444;13.578;2023-04-03T01:16:16;6.38;;;1.83;;
22040;SDS011;11184;52.444;13.578;2023-04-03T01:19:01;4.75;;;1.92;;
22040;SDS011;11184;52.444;13.578;2023-04-03T01:24:34;8.93;;;1.70;;
22040;SDS011;11184;52.444;13.578;2023-04-03T01:27:19;5.18;;;2.00;;
22040;SDS011;11184;52.444;13.578;2023-04-03T01:30:04;5.68;;;1.70;;
22040;SDS011;11184;52.444;13.578;2023-04-03T01:32:50;4.15;;;1.52;;
22040;SDS011;11184;52.444;13.578;2023-04-03T01:35:34;12.75;;;2.13;;
22040;SDS011;11184;52.444;13.578;2023-04-03T01:38:19;2.45;;;1.90;;
22040;SDS011;11184;52.444;13.578;2023-04-03T01:41:04;6.47;;;2.28;;
22040;SDS011;11184;52.444;13.578;2023-04-03T01:43:49;9.00;;;2.20;;
22040;SDS011;11184;52.444;13.578;2023-04-03T01:46:34;3.58;;;2.20;;
22040;SDS011;11184;52.444;13.578;2023-04-03T01:49:18;4.20;;;1.83;;
22040;SDS011;11184;52.444;13.578;2023-04-03T01:52:03;4.05;;;1.70;;
22040;SDS011;11184;52.444;13.578;2023-04-03T01:54:48;2.63;;;1.60;;
22040;SDS011;11184;52.444;13.578;2023-04-03T01:57:32;4.68;;;2.28;;
22040;SDS011;11184;52.444;13.578;2023-04-03T02:00:17;7.40;;;1.63;;
22040;SDS011;11184;52.444;13.578;2023-04-03T02:03:02;2.63;;;1.92;;
22040;SDS011;11184;52.444;13.578;2023-04-03T02:05:47;2.55;;;1.63;;
22040;SDS011;11184;52.444;13.578;2023-04-03T02:08:31;4.75;;;2.28;;
22040;SDS011;11184;52.444;13.578;2023-04-03T02:11:16;4.70;;;2.35;;
22040;SDS011;11184;52.444;13.578;2023-04-03T02:14:01;10.27;;;2.63;;
22040;SDS011;11184;52.444;13.578;2023-04-03T02:16:45;5.28;;;2.03;;
22040;SDS011;11184;52.444;13.578;2023-04-03T02:19:30;4.80;;;2.22;;
22040;SDS011;11184;52.444;13.578;2023-04-03T02:22:15;2.00;;;1.50;;
22040;SDS011;11184;52.444;13.578;2023-04-03T02:24:59;5.53;;;2.08;;
22040;SDS011;11184;52.444;13.578;2023-04-03T02:27:44;7.15;;;1.73;;
22040;SDS011;11184;52.444;13.578;2023-04-03T02:30:28;9.43;;;2.58;;
22040;SDS011;11184;52.444;13.578;2023-04-03T02:33:14;5.00;;;2.00;;
22040;SDS011;11184;52.444;13.578;2023-04-03T02:35:59;3.25;;;1.85;;
22040;SDS011;11184;52.444;13.578;2023-04-03T02:38:43;3.83;;;2.20;;
22040;SDS011;11184;52.444;13.578;2023-04-03T02:41:29;4.55;;;2.08;;
22040;SDS011;11184;52.444;13.578;2023-04-03T02:44:19;3.60;;;2.05;;
22040;SDS011;11184;52.444;13.578;2023-04-03T02:47:04;5.60;;;1.85;;
22040;SDS011;11184;52.444;13.578;2023-04-03T02:49:49;4.25;;;1.30;;
22040;SDS011;11184;52.444;13.578;2023-04-03T02:52:34;4.75;;;2.25;;
22040;SDS011;11184;52.444;13.578;2023-04-03T02:55:18;10.43;;;2.20;;
22040;SDS011;11184;52.444;13.578;2023-04-03T02:58:03;8.00;;;3.22;;
22040;SDS011;11184;52.444;13.578;2023-04-03T03:00:47;2.95;;;2.10;;
22040;SDS011;11184;52.444;13.578;2023-04-03T03:03:32;4.85;;;2.45;;
22040;SDS011;11184;52.444;13.578;2023-04-03T03:06:16;7.22;;;2.53;;
22040;SDS011;11184;52.444;13.578;2023-04-03T03:09:01;5.80;;;3.17;;
22040;SDS011;11184;52.444;13.578;2023-04-03T03:11:47;6.05;;;2.70;;
22040;SDS011;11184;52.444;13.578;2023-04-03T03:14:31;3.90;;;2.17;;
22040;SDS011;11184;52.444;13.578;2023-04-03T03:17:16;3.92;;;2.15;;
22040;SDS011;11184;52.444;13.578;2023-04-03T03:20:02;8.55;;;2.40;;
22040;SDS011;11184;52.444;13.578;2023-04-03T03:22:46;4.22;;;2.38;;
22040;SDS011;11184;52.444;13.578;2023-04-03T03:25:31;8.35;;;2.30;;
22040;SDS011;11184;52.444;13.578;2023-04-03T03:28:15;5.68;;;3.10;;
22040;SDS011;11184;52.444;13.578;2023-04-03T03:31:00;5.90;;;1.92;;
22040;SDS011;11184;52.444;13.578;2023-04-03T03:33:45;5.05;;;2.40;;
22040;SDS011;11184;52.444;13.578;2023-04-03T03:36:29;3.15;;;2.08;;
22040;SDS011;11184;52.444;13.578;2023-04-03T03:39:14;4.18;;;1.80;;
22040;SDS011;11184;52.444;13.578;2023-04-03T03:41:59;6.28;;;2.13;;
22040;SDS011;11184;52.444;13.578;2023-04-03T03:44:44;8.57;;;2.75;;
22040;SDS011;11184;52.444;13.578;2023-04-03T03:47:29;9.93;;;3.00;;
22040;SDS011;11184;52.444;13.578;2023-04-03T03:50:14;6.00;;;2.72;;
22040;SDS011;11184;52.444;13.578;2023-04-03T03:52:59;3.80;;;2.45;;
22040;SDS011;11184;52.444;13.578;2023-04-03T03:55:44;6.38;;;2.20;;
22040;SDS011;11184;52.444;13.578;2023-04-03T03:58:29;7.45;;;2.35;;
22040;SDS011;11184;52.444;13.578;2023-04-03T04:01:14;11.43;;;2.60;;
22040;SDS011;11184;52.444;13.578;2023-04-03T04:03:58;2.58;;;1.67;;
22040;SDS011;11184;52.444;13.578;2023-04-03T04:06:43;6.43;;;2.25;;
22040;SDS011;11184;52.444;13.578;2023-04-03T04:09:28;4.70;;;2.55;;
22040;SDS011;11184;52.444;13.578;2023-04-03T04:12:13;3.45;;;2.20;;
22040;SDS011;11184;52.444;13.578;2023-04-03T04:14:59;9.07;;;2.17;;
22040;SDS011;11184;52.444;13.578;2023-04-03T04:17:44;7.72;;;3.00;;
22040;SDS011;11184;52.444;13.578;2023-04-03T04:20:28;6.70;;;2.10;;
22040;SDS011;11184;52.444;13.578;2023-04-03T04:23:14;6.20;;;2.35;;
22040;SDS011;11184;52.444;13.578;2023-04-03T04:25:58;6.63;;;3.88;;
22040;SDS011;11184;52.444;13.578;2023-04-03T04:28:43;7.50;;;2.78;;
22040;SDS011;11184;52.444;13.578;2023-04-03T04:31:27;9.02;;;3.95;;
22040;SDS011;11184;52.444;13.578;2023-04-03T04:34:12;3.60;;;2.13;;
22040;SDS011;11184;52.444;13.578;2023-04-03T04:36:57;3.45;;;2.35;;
22040;SDS011;11184;52.444;13.578;2023-04-03T04:39:41;9.23;;;2.63;;
22040;SDS011;11184;52.444;13.578;2023-04-03T04:42:26;3.72;;;2.85;;
22040;SDS011;11184;52.444;13.578;2023-04-03T04:45:10;4.03;;;2.63;;
22040;SDS011;11184;52.444;13.578;2023-04-03T04:47:55;6.32;;;2.85;;
22040;SDS011;11184;52.444;13.578;2023-04-03T04:50:40;7.13;;;3.08;;
22040;SDS011;11184;52.444;13.578;2023-04-03T04:53:25;10.13;;;3.63;;
22040;SDS011;11184;52.444;13.578;2023-04-03T04:56:10;5.05;;;2.60;;
22040;SDS011;11184;52.444;13.578;2023-04-03T04:58:54;10.57;;;3.22;;
22040;SDS011;11184;52.444;13.578;2023-04-03T05:01:39;3.67;;;2.90;;
22040;SDS011;11184;52.444;13.578;2023-04-03T05:04:23;4.32;;;3.22;;
22040;SDS011;11184;52.444;13.578;2023-04-03T05:07:08;5.80;;;2.88;;
22040;SDS011;11184;52.444;13.578;2023-04-03T05:09:53;10.18;;;3.17;;
22040;SDS011;11184;52.444;13.578;2023-04-03T05:12:37;6.43;;;2.92;;
22040;SDS011;11184;52.444;13.578;2023-04-03T05:15:22;7.60;;;3.67;;
22040;SDS011;11184;52.444;13.578;2023-04-03T05:18:06;14.07;;;3.38;;
22040;SDS011;11184;52.444;13.578;2023-04-03T05:20:51;10.77;;;3.40;;
22040;SDS011;11184;52.444;13.578;2023-04-03T05:23:36;9.98;;;3.42;;
22040;SDS011;11184;52.444;13.578;2023-04-03T05:26:20;10.75;;;3.47;;
22040;SDS011;11184;52.444;13.578;2023-04-03T05:29:05;11.48;;;2.83;;
22040;SDS011;11184;52.444;13.578;2023-04-03T05:31:50;5.30;;;2.15;;
22040;SDS011;11184;52.444;13.578;2023-04-03T05:34:34;6.50;;;2.53;;
22040;SDS011;11184;52.444;13.578;2023-04-03T05:37:19;6.45;;;2.47;;
22040;SDS011;11184;52.444;13.578;2023-04-03T05:40:04;5.72;;;2.45;;
22040;SDS011;11184;52.444;13.578;2023-04-03T05:42:50;6.75;;;2.30;;
22040;SDS011;11184;52.444;13.578;2023-04-03T05:45:35;10.07;;;2.88;;
22040;SDS011;11184;52.444;13.578;2023-04-03T05:48:19;8.65;;;3.63;;
22040;SDS011;11184;52.444;13.578;2023-04-03T05:51:04;7.40;;;2.85;;
22040;SDS011;11184;52.444;13.578;2023-04-03T05:53:50;6.82;;;2.60;;
22040;SDS011;11184;52.444;13.578;2023-04-03T05:56:36;6.18;;;2.50;;
22040;SDS011;11184;52.444;13.578;2023-04-03T05:59:21;4.70;;;3.90;;
22040;SDS011;11184;52.444;13.578;2023-04-03T06:02:06;8.80;;;3.83;;
22040;SDS011;11184;52.444;13.578;2023-04-03T06:04:51;2.63;;;1.98;;
22040;SDS011;11184;52.444;13.578;2023-04-03T06:07:35;4.57;;;2.80;;
22040;SDS011;11184;52.444;13.578;2023-04-03T06:10:20;6.43;;;2.72;;
22040;SDS011;11184;52.444;13.578;2023-04-03T06:13:05;2.80;;;2.08;;
22040;SDS011;11184;52.444;13.578;2023-04-03T06:15:50;7.63;;;2.60;;
22040;SDS011;11184;52.444;13.578;2023-04-03T06:18:35;6.78;;;2.60;;
22040;SDS011;11184;52.444;13.578;2023-04-03T06:21:20;3.55;;;2.92;;
22040;SDS011;11184;52.444;13.578;2023-04-03T06:24:05;4.20;;;2.13;;
22040;SDS011;11184;52.444;13.578;2023-04-03T06:26:50;4.78;;;1.60;;
22040;SDS011;11184;52.444;13.578;2023-04-03T06:29:34;2.88;;;1.83;;
22040;SDS011;11184;52.444;13.578;2023-04-03T06:32:20;8.60;;;2.28;;
22040;SDS011;11184;52.444;13.578;2023-04-03T06:35:05;7.70;;;1.70;;
22040;SDS011;11184;52.444;13.578;2023-04-03T06:37:50;4.70;;;2.15;;
22040;SDS011;11184;52.444;13.578;2023-04-03T06:40:35;9.18;;;1.67;;
22040;SDS011;11184;52.444;13.578;2023-04-03T06:43:19;6.30;;;2.25;;
22040;SDS011;11184;52.444;13.578;2023-04-03T06:46:04;5.05;;;1.70;;
22040;SDS011;11184;52.444;13.578;2023-04-03T06:48:49;2.53;;;1.55;;
22040;SDS011;11184;52.444;13.578;2023-04-03T06:51:34;3.45;;;2.00;;
22040;SDS011;11184;52.444;13.578;2023-04-03T06:54:19;5.30;;;2.38;;
22040;SDS011;11184;52.444;13.578;2023-04-03T06:57:04;4.68;;;1.52;;
22040;SDS011;11184;52.444;13.578;2023-04-03T06:59:48;5.95;;;1.42;;
22040;SDS011;11184;52.444;13.578;2023-04-03T07:02:33;4.35;;;1.70;;
22040;SDS011;11184;52.444;13.578;2023-04-03T07:05:18;6.85;;;2.88;;
22040;SDS011;11184;52.444;13.578;2023-04-03T07:08:02;3.17;;;1.55;;
22040;SDS011;11184;52.444;13.578;2023-04-03T07:10:47;3.85;;;1.38;;
22040;SDS011;11184;52.444;13.578;2023-04-03T07:13:31;4.70;;;2.25;;
22040;SDS011;11184;52.444;13.578;2023-04-03T07:16:16;3.05;;;1.48;;
22040;SDS011;11184;52.444;13.578;2023-04-03T07:19:02;5.82;;;2.22;;
22040;SDS011;11184;52.444;13.578;2023-04-03T07:21:47;6.03;;;1.80;;
22040;SDS011;11184;52.444;13.578;2023-04-03T07:24:31;9.30;;;2.30;;
22040;SDS011;11184;52.444;13.578;2023-04-03T07:27:16;3.05;;;1.60;;
22040;SDS011;11184;52.444;13.578;2023-04-03T07:30:01;4.93;;;2.33;;
22040;SDS011;11184;52.444;13.578;2023-04-03T07:32:46;3.45;;;1.30;;
22040;SDS011;11184;52.444;13.578;2023-04-03T07:35:31;8.20;;;1.65;;
22040;SDS011;11184;52.444;13.578;2023-04-03T07:38:15;4.68;;;1.63;;
22040;SDS011;11184;52.444;13.578;2023-04-03T07:41:00;7.22;;;1.30;;
22040;SDS011;11184;52.444;13.578;2023-04-03T07:43:45;3.95;;;1.08;;
22040;SDS011;11184;52.444;13.578;2023-04-03T07:46:30;3.03;;;1.45;;
22040;SDS011;11184;52.444;13.578;2023-04-03T07:49:15;3.83;;;1.25;;
22040;SDS011;11184;52.444;13.578;2023-04-03T07:52:01;3.58;;;1.33;;
22040;SDS011;11184;52.444;13.578;2023-04-03T07:54:46;3.63;;;1.38;;
22040;SDS011;11184;52.444;13.578;2023-04-03T07:57:31;6.22;;;1.77;;
22040;SDS011;11184;52.444;13.578;2023-04-03T08:00:16;1.25;;;0.93;;
22040;SDS011;11184;52.444;13.578;2023-04-03T08:03:01;2.88;;;1.02;;
22040;SDS011;11184;52.444;13.578;2023-04-03T08:05:46;4.97;;;1.33;;
22040;SDS011;11184;52.444;13.578;2023-04-03T08:08:31;4.60;;;1.20;;
22040;SDS011;11184;52.444;13.578;2023-04-03T08:11:16;10.10;;;1.63;;
22040;SDS011;11184;52.444;13.578;2023-04-03T08:14:02;1.90;;;1.25;;
22040;SDS011;11184;52.444;13.578;2023-04-03T08:16:47;3.28;;;1.10;;
22040;SDS011;11184;52.444;13.578;2023-04-03T08:19:32;4.72;;;1.00;;
22040;SDS011;11184;52.444;13.578;2023-04-03T08:22:16;5.53;;;1.58;;
22040;SDS011;11184;52.444;13.578;2023-04-03T08:25:01;6.35;;;1.10;;
22040;SDS011;11184;52.444;13.578;2023-04-03T08:27:46;4.13;;;1.02;;
22040;SDS011;11184;52.444;13.578;2023-04-03T08:30:31;2.00;;;1.08;;
22040;SDS011;11184;52.444;13.578;2023-04-03T08:33:15;3.33;;;1.50;;
22040;SDS011;11184;52.444;13.578;2023-04-03T08:36:00;3.33;;;1.27;;
22040;SDS011;11184;52.444;13.578;2023-04-03T08:38:45;1.85;;;0.80;;
22040;SDS011;11184;52.444;13.578;2023-04-03T08:41:31;2.40;;;1.30;;
22040;SDS011;11184;52.444;13.578;2023-04-03T08:47:23;2.20;;;1.05;;
22040;SDS011;11184;52.444;13.578;2023-04-03T08:50:12;4.10;;;1.00;;
22040;SDS011;11184;52.444;13.578;2023-04-03T08:52:58;2.63;;;1.67;;
22040;SDS011;11184;52.444;13.578;2023-04-03T08:55:46;1.38;;;1.08;;
22040;SDS011;11184;52.444;13.578;2023-04-03T08:58:33;1.17;;;0.90;;
22040;SDS011;11184;52.444;13.578;2023-04-03T09:01:33;1.17;;;1.08;;
22040;SDS011;11184;52.444;13.578;2023-04-03T09:04:18;2.65;;;1.30;;
22040;SDS011;11184;52.444;13.578;2023-04-03T09:07:14;3.13;;;1.27;;
22040;SDS011;11184;52.444;13.578;2023-04-03T09:10:00;3.10;;;1.10;;
22040;SDS011;11184;52.444;13.578;2023-04-03T09:12:48;3.10;;;1.20;;
22040;SDS011;11184;52.444;13.578;2023-04-03T09:15:35;2.28;;;0.82;;
22040;SDS011;11184;52.444;13.578;2023-04-03T09:18:20;2.05;;;1.55;;
22040;SDS011;11184;52.444;13.578;2023-04-03T09:24:10;3.08;;;1.10;;
22040;SDS011;11184;52.444;13.578;2023-04-03T09:27:01;1.33;;;0.95;;
22040;SDS011;11184;52.444;13.578;2023-04-03T09:29:48;5.30;;;1.00;;
22040;SDS011;11184;52.444;13.578;2023-04-03T09:32:37;2.70;;;0.88;;
22040;SDS011;11184;52.444;13.578;2023-04-03T09:35:24;1.15;;;0.50;;
22040;SDS011;11184;52.444;13.578;2023-04-03T09:41:04;3.25;;;0.88;;
22040;SDS011;11184;52.444;13.578;2023-04-03T09:43:53;1.17;;;0.90;;
22040;SDS011;11184;52.444;13.578;2023-04-03T09:46:38;5.75;;;1.30;;
22040;SDS011;11184;52.444;13.578;2023-04-03T09:49:23;1.52;;;0.73;;
22040;SDS011;11184;52.444;13.578;2023-04-03T09:52:18;2.55;;;1.15;;
22040;SDS011;11184;52.444;13.578;2023-04-03T09:55:07;1.38;;;0.93;;
22040;SDS011;11184;52.444;13.578;2023-04-03T09:57:57;6.45;;;1.45;;
22040;SDS011;11184;52.444;13.578;2023-04-03T10:00:42;2.65;;;1.98;;
22040;SDS011;11184;52.444;13.578;2023-04-03T10:03:31;2.83;;;0.90;;
22040;SDS011;11184;52.444;13.578;2023-04-03T10:06:21;3.75;;;1.20;;
22040;SDS011;11184;52.444;13.578;2023-04-03T10:09:16;0.80;;;0.80;;
22040;SDS011;11184;52.444;13.578;2023-04-03T10:12:08;2.35;;;0.98;;
22040;SDS011;11184;52.444;13.578;2023-04-03T10:14:56;1.83;;;1.02;;
22040;SDS011;11184;52.444;13.578;2023-04-03T10:20:28;4.20;;;1.38;;
22040;SDS011;11184;52.444;13.578;2023-04-03T10:23:21;0.75;;;0.70;;
22040;SDS011;11184;52.444;13.578;2023-04-03T10:26:09;3.03;;;0.90;;
22040;SDS011;11184;52.444;13.578;2023-04-03T10:29:01;4.75;;;1.50;;
22040;SDS011;11184;52.444;13.578;2023-04-03T10:31:57;0.93;;;0.70;;
22040;SDS011;11184;52.444;13.578;2023-04-03T10:34:44;0.88;;;0.57;;
22040;SDS011;11184;52.444;13.578;2023-04-03T10:37:30;2.25;;;1.25;;
22040;SDS011;11184;52.444;13.578;2023-04-03T10:40:28;2.25;;;1.00;;
22040;SDS011;11184;52.444;13.578;2023-04-03T10:43:18;1.55;;;1.00;;
22040;SDS011;11184;52.444;13.578;2023-04-03T10:49:04;3.20;;;1.10;;
22040;SDS011;11184;52.444;13.578;2023-04-03T10:51:53;3.25;;;1.33;;
22040;SDS011;11184;52.444;13.578;2023-04-03T10:54:59;2.05;;;1.17;;
22040;SDS011;11184;52.444;13.578;2023-04-03T10:57:45;3.20;;;1.20;;
22040;SDS011;11184;52.444;13.578;2023-04-03T11:00:36;2.28;;;1.38;;
22040;SDS011;11184;52.444;13.578;2023-04-03T11:06:10;5.47;;;1.77;;
22040;SDS011;11184;52.444;13.578;2023-04-03T11:08:57;2.63;;;1.20;;
22040;SDS011;11184;52.444;13.578;2023-04-03T11:11:42;2.67;;;1.17;;
22040;SDS011;11184;52.444;13.578;2023-04-03T11:14:28;0.80;;;0.80;;
22040;SDS011;11184;52.444;13.578;2023-04-03T11:20:21;4.00;;;1.38;;
22040;SDS011;11184;52.444;13.578;2023-04-03T11:23:18;3.17;;;1.05;;
22040;SDS011;11184;52.444;13.578;2023-04-03T11:26:16;6.93;;;1.65;;
22040;SDS011;11184;52.444;13.578;2023-04-03T11:29:03;3.53;;;0.88;;
22040;SDS011;11184;52.444;13.578;2023-04-03T11:34:55;3.72;;;1.20;;
22040;SDS011;11184;52.444;13.578;2023-04-03T11:37:44;1.73;;;1.38;;
22040;SDS011;11184;52.444;13.578;2023-04-03T11:40:33;4.25;;;1.45;;
22040;SDS011;11184;52.444;13.578;2023-04-03T11:43:23;4.60;;;1.40;;
22040;SDS011;11184;52.444;13.578;2023-04-03T11:46:09;3.75;;;1.23;;
22040;SDS011;11184;52.444;13.578;2023-04-03T11:48:54;2.30;;;0.77;;
22040;SDS011;11184;52.444;13.578;2023-04-03T11:51:40;1.52;;;1.20;;
22040;SDS011;11184;52.444;13.578;2023-04-03T11:54:36;4.57;;;1.50;;
22040;SDS011;11184;52.444;13.578;2023-04-03T11:57:43;2.03;;;1.08;;
22040;SDS011;11184;52.444;13.578;2023-04-03T12:09:34;3.50;;;1.30;;
22040;SDS011;11184;52.444;13.578;2023-04-03T12:12:37;3.92;;;1.42;;
22040;SDS011;11184;52.444;13.578;2023-04-03T12:15:23;3.65;;;1.45;;
22040;SDS011;11184;52.444;13.578;2023-04-03T12:21:13;4.32;;;1.70;;
22040;SDS011;11184;52.444;13.578;2023-04-03T12:30:00;1.67;;;1.00;;
22040;SDS011;11184;52.444;13.578;2023-04-03T12:33:13;3.22;;;1.38;;
22040;SDS011;11184;52.444;13.578;2023-04-03T12:38:52;2.60;;;0.90;;
22040;SDS011;11184;52.444;13.578;2023-04-03T12:41:46;2.22;;;1.20;;
22040;SDS011;11184;52.444;13.578;2023-04-03T12:44:37;4.25;;;1.23;;
22040;SDS011;11184;52.444;13.578;2023-04-03T12:47:32;1.77;;;1.10;;
22040;SDS011;11184;52.444;13.578;2023-04-03T12:50:30;1.67;;;1.15;;
22040;SDS011;11184;52.444;13.578;2023-04-03T12:53:21;2.10;;;1.38;;
22040;SDS011;11184;52.444;13.578;2023-04-03T12:56:20;3.42;;;0.90;;
22040;SDS011;11184;52.444;13.578;2023-04-03T12:59:16;3.92;;;0.95;;
22040;SDS011;11184;52.444;13.578;2023-04-03T13:02:01;1.63;;;1.20;;
22040;SDS011;11184;52.444;13.578;2023-04-03T13:04:46;3.72;;;1.10;;
22040;SDS011;11184;52.444;13.578;2023-04-03T13:07:33;2.05;;;1.63;;
22040;SDS011;11184;52.444;13.578;2023-04-03T13:10:18;1.95;;;1.10;;
22040;SDS011;11184;52.444;13.578;2023-04-03T13:13:08;2.55;;;1.67;;
22040;SDS011;11184;52.444;13.578;2023-04-03T13:15:53;1.95;;;0.90;;
22040;SDS011;11184;52.444;13.578;2023-04-03T13:18:39;4.45;;;0.80;;
22040;SDS011;11184;52.444;13.578;2023-04-03T13:21:25;2.38;;;0.88;;
22040;SDS011;11184;52.444;13.578;2023-04-03T13:24:11;3.33;;;1.17;;
22040;SDS011;11184;52.444;13.578;2023-04-03T13:26:56;1.55;;;0.70;;
22040;SDS011;11184;52.444;13.578;2023-04-03T13:29:41;4.72;;;1.10;;
22040;SDS011;11184;52.444;13.578;2023-04-03T13:32:26;3.80;;;1.10;;
22040;SDS011;11184;52.444;13.578;2023-04-03T13:35:29;7.47;;;2.53;;
22040;SDS011;11184;52.444;13.578;2023-04-03T13:41:04;1.88;;;0.82;;
22040;SDS011;11184;52.444;13.578;2023-04-03T13:43:49;4.10;;;1.50;;
22040;SDS011;11184;52.444;13.578;2023-04-03T13:46:33;5.05;;;1.45;;
22040;SDS011;11184;52.444;13.578;2023-04-03T13:49:34;3.15;;;1.40;;
22040;SDS011;11184;52.444;13.578;2023-04-03T13:55:18;4.55;;;1.73;;
22040;SDS011;11184;52.444;13.578;2023-04-03T13:58:19;1.80;;;0.90;;
22040;SDS011;11184;52.444;13.578;2023-04-03T14:01:17;3.47;;;1.25;;
22040;SDS011;11184;52.444;13.578;2023-04-03T14:04:10;2.47;;;1.30;;
22040;SDS011;11184;52.444;13.578;2023-04-03T14:06:55;2.30;;;0.98;;
22040;SDS011;11184;52.444;13.578;2023-04-03T14:09:40;5.72;;;1.73;;
22040;SDS011;11184;52.444;13.578;2023-04-03T14:12:32;4.00;;;0.82;;
22040;SDS011;11184;52.444;13.578;2023-04-03T14:15:20;3.15;;;1.23;;
22040;SDS011;11184;52.444;13.578;2023-04-03T14:18:15;2.33;;;1.00;;
22040;SDS011;11184;52.444;13.578;2023-04-03T14:20:59;1.55;;;1.02;;
22040;SDS011;11184;52.444;13.578;2023-04-03T14:23:44;2.97;;;1.30;;
22040;SDS011;11184;52.444;13.578;2023-04-03T14:26:29;1.75;;;1.00;;
22040;SDS011;11184;52.444;13.578;2023-04-03T14:29:14;3.25;;;1.15;;
22040;SDS011;11184;52.444;13.578;2023-04-03T14:31:58;2.05;;;1.17;;
22040;SDS011;11184;52.444;13.578;2023-04-03T14:34:44;3.17;;;1.20;;
22040;SDS011;11184;52.444;13.578;2023-04-03T14:37:29;1.33;;;0.80;;
22040;SDS011;11184;52.444;13.578;2023-04-03T14:40:17;2.63;;;1.25;;
22040;SDS011;11184;52.444;13.578;2023-04-03T14:43:01;3.30;;;1.42;;
22040;SDS011;11184;52.444;13.578;2023-04-03T14:45:46;2.92;;;2.35;;
22040;SDS011;11184;52.444;13.578;2023-04-03T14:48:31;7.68;;;1.58;;
22040;SDS011;11184;52.444;13.578;2023-04-03T14:51:16;2.80;;;1.52;;
22040;SDS011;11184;52.444;13.578;2023-04-03T14:54:00;3.00;;;2.13;;
22040;SDS011;11184;52.444;13.578;2023-04-03T14:56:45;3.67;;;1.60;;
22040;SDS011;11184;52.444;13.578;2023-04-03T14:59:30;1.48;;;1.25;;
22040;SDS011;11184;52.444;13.578;2023-04-03T15:05:00;7.47;;;1.58;;
22040;SDS011;11184;52.444;13.578;2023-04-03T15:07:49;3.20;;;1.45;;
22040;SDS011;11184;52.444;13.578;2023-04-03T15:10:34;3.17;;;1.55;;
22040;SDS011;11184;52.444;13.578;2023-04-03T15:13:19;1.17;;;0.98;;
22040;SDS011;11184;52.444;13.578;2023-04-03T15:16:04;2.28;;;1.15;;
22040;SDS011;11184;52.444;13.578;2023-04-03T15:18:49;2.97;;;1.05;;
22040;SDS011;11184;52.444;13.578;2023-04-03T15:21:33;5.32;;;1.13;;
22040;SDS011;11184;52.444;13.578;2023-04-03T15:24:18;1.33;;;0.90;;
22040;SDS011;11184;52.444;13.578;2023-04-03T15:27:02;4.00;;;1.35;;
22040;SDS011;11184;52.444;13.578;2023-04-03T15:29:47;3.40;;;1.52;;
22040;SDS011;11184;52.444;13.578;2023-04-03T15:32:31;3.88;;;1.20;;
22040;SDS011;11184;52.444;13.578;2023-04-03T15:35:17;2.53;;;1.40;;
22040;SDS011;11184;52.444;13.578;2023-04-03T15:38:02;1.67;;;1.20;;
22040;SDS011;11184;52.444;13.578;2023-04-03T15:40:47;4.35;;;1.15;;
22040;SDS011;11184;52.444;13.578;2023-04-03T15:43:31;1.63;;;1.15;;
22040;SDS011;11184;52.444;13.578;2023-04-03T15:46:17;2.38;;;1.40;;
22040;SDS011;11184;52.444;13.578;2023-04-03T15:49:02;3.28;;;1.20;;
22040;SDS011;11184;52.444;13.578;2023-04-03T15:51:46;1.85;;;1.10;;
22040;SDS011;11184;52.444;13.578;2023-04-03T15:54:31;2.25;;;1.30;;
22040;SDS011;11184;52.444;13.578;2023-04-03T15:57:15;2.58;;;1.00;;
22040;SDS011;11184;52.444;13.578;2023-04-03T16:00:00;5.95;;;1.55;;
22040;SDS011;11184;52.444;13.578;2023-04-03T16:02:45;5.68;;;1.23;;
22040;SDS011;11184;52.444;13.578;2023-04-03T16:05:31;1.52;;;1.00;;
22040;SDS011;11184;52.444;13.578;2023-04-03T16:08:16;5.40;;;1.88;;
22040;SDS011;11184;52.444;13.578;2023-04-03T16:11:01;3.88;;;1.58;;
22040;SDS011;11184;52.444;13.578;2023-04-03T16:13:45;2.30;;;1.23;;
22040;SDS011;11184;52.444;13.578;2023-04-03T16:16:30;2.20;;;1.48;;
22040;SDS011;11184;52.444;13.578;2023-04-03T16:19:15;1.58;;;0.80;;
22040;SDS011;11184;52.444;13.578;2023-04-03T16:21:59;3.58;;;1.15;;
22040;SDS011;11184;52.444;13.578;2023-04-03T16:24:44;4.97;;;1.67;;
22040;SDS011;11184;52.444;13.578;2023-04-03T16:27:29;3.83;;;1.10;;
22040;SDS011;11184;52.444;13.578;2023-04-03T16:30:14;1.42;;;1.02;;
22040;SDS011;11184;52.444;13.578;2023-04-03T16:32:59;2.63;;;0.95;;
22040;SDS011;11184;52.444;13.578;2023-04-03T16:35:43;2.97;;;1.48;;
22040;SDS011;11184;52.444;13.578;2023-04-03T16:38:29;2.45;;;1.08;;
22040;SDS011;11184;52.444;13.578;2023-04-03T16:41:13;2.10;;;1.45;;
22040;SDS011;11184;52.444;13.578;2023-04-03T16:43:58;2.90;;;1.52;;
22040;SDS011;11184;52.444;13.578;2023-04-03T16:46:43;3.28;;;1.02;;
22040;SDS011;11184;52.444;13.578;2023-04-03T16:49:27;4.13;;;1.50;;
22040;SDS011;11184;52.444;13.578;2023-04-03T16:52:16;4.32;;;1.42;;
22040;SDS011;11184;52.444;13.578;2023-04-03T16:55:00;2.05;;;1.70;;
22040;SDS011;11184;52.444;13.578;2023-04-03T16:57:45;18.33;;;2.08;;
22040;SDS011;11184;52.444;13.578;2023-04-03T17:00:30;4.53;;;1.30;;
22040;SDS011;11184;52.444;13.578;2023-04-03T17:03:15;3.55;;;1.60;;
22040;SDS011;11184;52.444;13.578;2023-04-03T17:06:00;2.15;;;1.40;;
22040;SDS011;11184;52.444;13.578;2023-04-03T17:08:45;3.35;;;1.13;;
22040;SDS011;11184;52.444;13.578;2023-04-03T17:11:30;2.55;;;1.33;;
22040;SDS011;11184;52.444;13.578;2023-04-03T17:14:15;2.35;;;1.23;;
22040;SDS011;11184;52.444;13.578;2023-04-03T17:17:00;3.13;;;1.33;;
22040;SDS011;11184;52.444;13.578;2023-04-03T17:19:45;4.07;;;1.48;;
22040;SDS011;11184;52.444;13.578;2023-04-03T17:22:30;5.47;;;1.27;;